Time;durP1;ratioP1;P1;durP2;ratioP2;P2;SDS_P1;SDS_P2;PMS_P1;PMS_P2;Temp;Humidity;BMP_temperature;BMP_pressure;BME280_temperature;BME280_humidity;BME280_pressure;Samples;Min_cycle;Max_cycle;Signal;HPM_P1;HPM_P2
2021/07/30 00:02:22;;;;;;;15.45;11.20;;;24.20;99.90;;;;;;5092173;28;20035;-73
2021/07/30 00:04:48;;;;;;;14.85;11.52;;;24.20;99.90;;;;;;5074180;28;20059;-72
2021/07/30 00:07:14;;;;;;;14.35;10.13;;;24.20;99.90;;;;;;5092434;28;20023;-71
2021/07/30 00:09:40;;;;;;;15.75;11.52;;;24.10;99.90;;;;;;5073967;28;20027;-72
2021/07/30 00:12:06;;;;;;;14.02;11.40;;;24.10;99.90;;;;;;5092140;28;20428;-73
2021/07/30 00:14:32;;;;;;;16.67;11.50;;;24.10;99.90;;;;;;5073990;28;20525;-73
2021/07/30 00:16:58;;;;;;;18.08;10.63;;;24.10;99.90;;;;;;5092118;28;20063;-73
2021/07/30 00:19:24;;;;;;;15.35;11.65;;;24.10;99.90;;;;;;5092025;28;20028;-73
2021/07/30 00:21:50;;;;;;;15.23;11.55;;;24.10;99.90;;;;;;5092026;28;20413;-72
2021/07/30 00:24:15;;;;;;;14.25;10.93;;;24.00;99.90;;;;;;5092354;28;20023;-73
2021/07/30 00:26:41;;;;;;;16.20;11.15;;;24.00;99.90;;;;;;5073985;28;20423;-74
2021/07/30 00:29:07;;;;;;;20.42;12.20;;;24.10;99.90;;;;;;5092229;28;20024;-74
2021/07/30 00:31:33;;;;;;;16.70;11.82;;;24.10;99.90;;;;;;5091925;28;20027;-74
2021/07/30 00:33:58;;;;;;;15.82;11.70;;;24.10;99.90;;;;;;5091822;28;20032;-73
2021/07/30 00:36:24;;;;;;;15.38;11.25;;;24.00;99.90;;;;;;5073418;28;20024;-73
2021/07/30 00:38:50;;;;;;;14.02;11.32;;;24.00;99.90;;;;;;5091583;28;20027;-72
2021/07/30 00:41:16;;;;;;;15.65;12.23;;;23.90;99.90;;;;;;5091939;28;20024;-73
2021/07/30 00:43:41;;;;;;;14.00;11.70;;;23.90;99.90;;;;;;5097080;28;20397;-75
2021/07/30 00:46:07;;;;;;;16.38;10.65;;;23.90;99.90;;;;;;5092211;28;20440;-73
2021/07/30 00:48:33;;;;;;;15.57;12.32;;;24.00;99.90;;;;;;5091526;28;20020;-72
2021/07/30 00:51:00;;;;;;;25.83;13.02;;;23.90;99.90;;;;;;5073562;28;20046;-72
2021/07/30 00:53:27;;;;;;;14.95;10.95;;;23.90;99.90;;;;;;5073879;28;20024;-74
2021/07/30 00:55:57;;;;;;;14.23;11.23;;;23.80;99.90;;;;;;5073453;28;20024;-72
2021/07/30 00:58:24;;;;;;;12.93;11.38;;;23.80;99.90;;;;;;5091296;28;20033;-73
2021/07/30 01:00:51;;;;;;;11.73;10.43;;;23.80;99.90;;;;;;5072921;28;20028;-72
2021/07/30 01:03:17;;;;;;;19.75;12.05;;;23.80;99.90;;;;;;5073344;28;20028;-73
2021/07/30 01:05:44;;;;;;;20.27;11.40;;;23.90;99.90;;;;;;5091286;28;20414;-72
2021/07/30 01:08:10;;;;;;;17.50;11.20;;;23.90;99.90;;;;;;5091055;28;20119;-72
2021/07/30 01:10:36;;;;;;;21.00;11.68;;;23.90;99.90;;;;;;5072977;28;20052;-72
2021/07/30 01:13:01;;;;;;;15.13;11.43;;;23.90;99.90;;;;;;5073091;28;20104;-71
2021/07/30 01:15:27;;;;;;;15.45;11.20;;;23.80;99.90;;;;;;5072674;28;20394;-74
2021/07/30 01:17:53;;;;;;;17.95;11.70;;;23.80;99.90;;;;;;5072987;28;20490;-72
2021/07/30 01:20:23;;;;;;;14.55;11.02;;;23.70;99.90;;;;;;5072826;28;20490;-74
2021/07/30 01:22:53;;;;;;;13.32;11.32;;;23.70;99.90;;;;;;5091101;28;20024;-74
2021/07/30 01:25:21;;;;;;;14.85;10.60;;;23.70;99.90;;;;;;5091397;28;20027;-73
2021/07/30 01:27:47;;;;;;;16.42;11.23;;;23.70;99.90;;;;;;5091230;28;20020;-73
2021/07/30 01:30:14;;;;;;;16.15;10.85;;;23.60;99.90;;;;;;5091189;28;20024;-73
2021/07/30 01:32:40;;;;;;;23.25;11.52;;;23.60;99.90;;;;;;5091488;28;20043;-74
2021/07/30 01:35:06;;;;;;;17.80;11.65;;;23.60;99.90;;;;;;5091289;28;20020;-73
2021/07/30 01:37:32;;;;;;;10.93;9.85;;;23.60;99.90;;;;;;5090864;28;20103;-72
2021/07/30 01:39:58;;;;;;;15.20;11.90;;;23.60;99.90;;;;;;5090735;28;20425;-72
2021/07/30 01:42:24;;;;;;;20.42;12.15;;;23.60;99.90;;;;;;5072611;28;20474;-73
2021/07/30 01:44:53;;;;;;;13.93;12.55;;;23.60;99.90;;;;;;5090129;28;20048;-72
2021/07/30 01:47:22;;;;;;;12.35;10.98;;;23.50;99.90;;;;;;5090699;28;20443;-72
2021/07/30 01:49:51;;;;;;;16.17;11.50;;;23.50;99.90;;;;;;5090423;28;20052;-71
2021/07/30 01:52:17;;;;;;;17.10;11.68;;;23.50;99.90;;;;;;5072522;28;20020;-72
2021/07/30 01:54:44;;;;;;;21.35;11.23;;;23.50;99.90;;;;;;5072508;28;20036;-72
2021/07/30 01:57:10;;;;;;;13.15;11.70;;;23.50;99.90;;;;;;5090717;28;20381;-73
2021/07/30 01:59:37;;;;;;;11.73;10.63;;;23.60;99.90;;;;;;5090508;28;20394;-73
2021/07/30 02:02:03;;;;;;;13.68;10.52;;;23.50;99.90;;;;;;5072089;28;20032;-72
2021/07/30 02:04:28;;;;;;;14.18;11.15;;;23.60;99.90;;;;;;5072192;28;20020;-72
2021/07/30 02:06:54;;;;;;;20.75;12.90;;;23.50;99.90;;;;;;5090454;28;20070;-73
2021/07/30 02:09:20;;;;;;;18.13;12.50;;;23.50;99.90;;;;;;5072114;28;20073;-73
2021/07/30 02:11:53;;;;;;;14.00;11.98;;;23.40;99.90;;;;;;5072271;28;20092;-72
2021/07/30 02:14:23;;;;;;;13.63;11.85;;;23.40;99.90;;;;;;5072926;28;20067;-72
2021/07/30 02:16:53;;;;;;;21.50;12.10;;;23.40;99.90;;;;;;5091032;28;20054;-73
2021/07/30 02:19:20;;;;;;;12.93;11.52;;;23.40;99.90;;;;;;5090357;28;20487;-73
2021/07/30 02:21:51;;;;;;;23.17;11.73;;;23.30;99.90;;;;;;5072165;28;20028;-73
2021/07/30 02:24:18;;;;;;;15.02;11.80;;;23.20;99.90;;;;;;5072358;28;20185;-72
2021/07/30 02:26:44;;;;;;;21.40;11.90;;;23.20;99.90;;;;;;5072523;28;20031;-74
2021/07/30 02:29:10;;;;;;;15.52;11.13;;;23.20;99.90;;;;;;5072493;28;20105;-73
2021/07/30 02:31:36;;;;;;;17.23;11.57;;;23.20;99.90;;;;;;5091180;28;20024;-73
2021/07/30 02:34:02;;;;;;;13.82;12.15;;;23.20;99.90;;;;;;5073248;28;20034;-75
2021/07/30 02:36:28;;;;;;;13.25;11.90;;;23.20;99.90;;;;;;5091017;28;20016;-72
2021/07/30 02:38:54;;;;;;;13.68;11.93;;;23.20;99.90;;;;;;5090813;28;20485;-73
2021/07/30 02:41:20;;;;;;;13.07;11.40;;;23.20;99.90;;;;;;5072172;28;20040;-72
2021/07/30 02:43:46;;;;;;;20.55;12.13;;;23.20;99.90;;;;;;5087699;28;20027;-73
2021/07/30 02:46:14;;;;;;;17.85;11.85;;;23.20;99.90;;;;;;5082265;28;20541;-72
2021/07/30 02:48:40;;;;;;;14.13;12.18;;;23.20;99.90;;;;;;5071944;28;20028;-75
2021/07/30 02:51:06;;;;;;;14.20;11.13;;;23.20;99.90;;;;;;5089941;28;20478;-74
2021/07/30 02:53:31;;;;;;;17.48;13.10;;;23.30;99.90;;;;;;5090247;28;20031;-73
2021/07/30 02:55:57;;;;;;;16.98;11.63;;;23.20;99.90;;;;;;5090038;28;20070;-72
2021/07/30 02:58:23;;;;;;;14.15;12.75;;;23.20;99.90;;;;;;5092810;28;20024;-72
2021/07/30 03:00:49;;;;;;;15.77;12.63;;;23.20;99.90;;;;;;5075206;28;20535;-73
2021/07/30 03:03:14;;;;;;;13.60;11.23;;;23.20;99.90;;;;;;5093532;28;20385;-73
2021/07/30 03:05:40;;;;;;;15.32;12.45;;;23.30;99.90;;;;;;5093598;28;20024;-73
2021/07/30 03:08:06;;;;;;;16.70;11.88;;;23.20;99.90;;;;;;5093582;28;20020;-72
2021/07/30 03:10:32;;;;;;;20.48;13.55;;;23.10;99.90;;;;;;5093454;28;20111;-73
2021/07/30 03:12:58;;;;;;;14.45;12.98;;;23.10;99.90;;;;;;5075153;28;20119;-72
2021/07/30 03:15:23;;;;;;;24.15;12.52;;;23.00;99.90;;;;;;5075151;28;20432;-72
2021/07/30 03:17:49;;;;;;;20.30;13.23;;;23.00;99.90;;;;;;5074793;28;20043;-73
2021/07/30 03:20:15;;;;;;;20.63;12.95;;;23.00;99.90;;;;;;5074955;28;20039;-72
2021/07/30 03:22:41;;;;;;;14.90;12.68;;;22.90;99.90;;;;;;5074742;28;20024;-73
2021/07/30 03:25:07;;;;;;;14.93;12.70;;;22.90;99.90;;;;;;5074846;28;20024;-73
2021/07/30 03:27:33;;;;;;;16.20;12.07;;;22.90;99.90;;;;;;5093297;28;20435;-72
2021/07/30 03:29:58;;;;;;;16.85;12.27;;;23.00;99.90;;;;;;5093140;28;20016;-72
2021/07/30 03:32:24;;;;;;;17.80;13.25;;;23.00;99.90;;;;;;5074820;28;20031;-72
2021/07/30 03:34:50;;;;;;;12.05;10.88;;;23.00;99.90;;;;;;5093115;28;20039;-73
2021/07/30 03:37:16;;;;;;;19.98;13.65;;;23.00;99.90;;;;;;5075097;28;20028;-73
2021/07/30 03:39:42;;;;;;;15.07;12.85;;;23.00;99.90;;;;;;5092843;28;20027;-73
2021/07/30 03:42:09;;;;;;;14.18;11.55;;;23.00;99.90;;;;;;5092841;28;20035;-73
2021/07/30 03:44:36;;;;;;;13.77;12.13;;;22.90;99.90;;;;;;5092986;28;20047;-72
2021/07/30 03:47:02;;;;;;;17.98;11.55;;;22.90;99.90;;;;;;5093240;28;20024;-73
2021/07/30 03:49:27;;;;;;;17.17;11.45;;;22.80;99.90;;;;;;5074715;28;20390;-73
2021/07/30 03:51:53;;;;;;;15.50;11.38;;;22.90;99.90;;;;;;5092729;28;20023;-74
2021/07/30 03:54:19;;;;;;;14.15;12.35;;;22.80;99.90;;;;;;5074585;28;20028;-73
2021/07/30 03:56:45;;;;;;;14.23;12.63;;;22.80;99.90;;;;;;5074769;28;20027;-74
2021/07/30 03:59:11;;;;;;;25.17;13.50;;;22.80;99.90;;;;;;5074378;28;20444;-72
2021/07/30 04:01:37;;;;;;;17.90;12.05;;;22.90;99.90;;;;;;5074254;28;20096;-72
2021/07/30 04:04:03;;;;;;;19.67;12.85;;;23.00;99.90;;;;;;5074605;28;20023;-72
2021/07/30 04:06:30;;;;;;;13.13;11.82;;;22.90;99.90;;;;;;5092794;28;20087;-72
2021/07/30 04:08:56;;;;;;;19.67;12.07;;;22.90;99.90;;;;;;5093094;28;20024;-72
2021/07/30 04:11:21;;;;;;;17.23;12.63;;;23.00;99.90;;;;;;5076100;28;20020;-72
2021/07/30 04:13:47;;;;;;;13.13;11.80;;;23.00;99.90;;;;;;5096109;28;20032;-73
2021/07/30 04:16:13;;;;;;;19.58;11.25;;;23.00;99.90;;;;;;5077751;28;20024;-73
2021/07/30 04:18:39;;;;;;;16.63;11.80;;;23.00;99.90;;;;;;5094184;28;20024;-74
2021/07/30 04:21:06;;;;;;;15.38;11.57;;;23.00;99.90;;;;;;5074813;28;20458;-75
2021/07/30 04:23:32;;;;;;;13.25;11.95;;;23.00;99.90;;;;;;5093024;28;20024;-74
2021/07/30 04:25:58;;;;;;;16.13;10.88;;;23.10;99.90;;;;;;5092521;28;20024;-74
2021/07/30 04:28:24;;;;;;;13.98;11.25;;;23.20;99.90;;;;;;5074130;28;20035;-73
2021/07/30 04:30:50;;;;;;;13.85;11.88;;;23.20;99.90;;;;;;5092094;28;20046;-73
2021/07/30 04:33:15;;;;;;;15.32;11.88;;;23.20;99.90;;;;;;5092489;28;20034;-72
2021/07/30 04:35:41;;;;;;;15.82;12.00;;;23.30;99.90;;;;;;5092455;28;20486;-75
2021/07/30 04:38:07;;;;;;;14.48;11.45;;;23.30;99.90;;;;;;5091936;28;20366;-73
2021/07/30 04:40:34;;;;;;;15.45;11.15;;;23.30;99.90;;;;;;5091750;28;20095;-73
2021/07/30 04:43:00;;;;;;;12.68;10.95;;;23.40;99.90;;;;;;5091826;28;20373;-73
2021/07/30 04:45:26;;;;;;;17.88;12.77;;;23.40;99.90;;;;;;5071069;28;20056;-73
2021/07/30 04:47:52;;;;;;;18.08;12.75;;;23.40;99.90;;;;;;5073543;28;20076;-75
2021/07/30 04:50:18;;;;;;;17.98;12.95;;;23.50;99.90;;;;;;5074064;28;20031;-73
2021/07/30 04:52:44;;;;;;;21.98;10.88;;;23.60;99.90;;;;;;5091945;28;20043;-74
2021/07/30 04:55:10;;;;;;;18.25;11.60;;;23.60;99.90;;;;;;5092529;28;20088;-73
2021/07/30 04:57:39;;;;;;;17.42;11.35;;;23.60;99.90;;;;;;5091922;28;20024;-73
2021/07/30 05:00:05;;;;;;;14.07;12.15;;;23.70;99.90;;;;;;5091552;28;20024;-73
2021/07/30 05:02:31;;;;;;;17.85;11.10;;;23.80;99.90;;;;;;5091770;28;20474;-74
2021/07/30 05:04:56;;;;;;;17.45;12.20;;;23.70;99.90;;;;;;5092179;28;20045;-73
2021/07/30 05:07:23;;;;;;;15.52;11.75;;;23.80;99.90;;;;;;5091692;28;20028;-72
2021/07/30 05:09:49;;;;;;;21.02;13.07;;;23.90;99.90;;;;;;5072934;28;20024;-72
2021/07/30 05:12:14;;;;;;;17.17;11.02;;;24.00;99.90;;;;;;5091357;28;20077;-74
2021/07/30 05:14:40;;;;;;;26.00;11.27;;;24.00;99.90;;;;;;5073021;28;20028;-72
2021/07/30 05:17:06;;;;;;;20.65;12.00;;;24.10;99.90;;;;;;5073139;28;20046;-72
2021/07/30 05:19:32;;;;;;;19.20;11.88;;;24.10;99.90;;;;;;5090320;28;20500;-72
2021/07/30 05:21:57;;;;;;;17.83;13.30;;;24.30;99.90;;;;;;5073094;28;20123;-72
2021/07/30 05:24:23;;;;;;;16.50;11.60;;;24.40;99.90;;;;;;5073171;28;20097;-72
2021/07/30 05:26:49;;;;;;;20.05;12.45;;;24.50;99.90;;;;;;5091106;28;20028;-72
2021/07/30 05:29:15;;;;;;;18.05;12.30;;;24.60;99.90;;;;;;5090788;28;20023;-72
2021/07/30 05:31:41;;;;;;;21.88;13.00;;;24.70;99.90;;;;;;5073415;28;20474;-74
2021/07/30 05:34:06;;;;;;;16.92;12.00;;;24.80;99.90;;;;;;5072935;28;20024;-73
2021/07/30 05:36:32;;;;;;;18.13;11.40;;;24.90;99.90;;;;;;5072999;28;20402;-72
2021/07/30 05:38:58;;;;;;;17.02;11.57;;;25.00;99.90;;;;;;5073286;28;20054;-73
2021/07/30 05:41:24;;;;;;;22.05;11.65;;;25.10;99.90;;;;;;5091088;28;20496;-73
2021/07/30 05:43:50;;;;;;;24.45;13.98;;;25.20;99.90;;;;;;5072864;28;20020;-74
2021/07/30 05:46:19;;;;;;;17.52;12.68;;;25.30;99.90;;;;;;5091160;28;20070;-71
2021/07/30 05:48:46;;;;;;;26.88;13.82;;;25.40;99.90;;;;;;5072407;28;20023;-74
2021/07/30 05:51:13;;;;;;;17.42;11.93;;;25.50;99.90;;;;;;5073507;28;20578;-73
2021/07/30 05:53:40;;;;;;;22.23;15.05;;;25.50;99.90;;;;;;5091237;28;20059;-71
2021/07/30 05:56:06;;;;;;;17.23;12.18;;;25.50;99.90;;;;;;5090813;28;20430;-73
2021/07/30 05:58:32;;;;;;;12.45;10.98;;;25.70;99.90;;;;;;5090549;28;20432;-74
2021/07/30 06:00:58;;;;;;;18.55;12.68;;;25.80;99.90;;;;;;5090602;28;20024;-72
2021/07/30 06:03:24;;;;;;;15.10;11.63;;;25.90;99.90;;;;;;5090478;28;20032;-73
2021/07/30 06:05:49;;;;;;;22.25;12.43;;;26.10;99.90;;;;;;5090450;28;20024;-72
2021/07/30 06:08:15;;;;;;;15.77;11.18;;;26.00;99.90;;;;;;5090289;28;20459;-72
2021/07/30 06:10:41;;;;;;;16.17;11.65;;;26.10;99.90;;;;;;5090688;28;20429;-72
2021/07/30 06:13:07;;;;;;;20.50;11.70;;;26.10;99.90;;;;;;5072338;28;20032;-74
2021/07/30 06:15:33;;;;;;;15.35;11.02;;;26.20;99.90;;;;;;5090578;28;20112;-73
2021/07/30 06:18:02;;;;;;;27.40;12.10;;;26.30;99.90;;;;;;5090621;28;20021;-73
2021/07/30 06:20:28;;;;;;;25.25;12.35;;;26.30;99.90;;;;;;5090408;28;20036;-72
2021/07/30 06:22:54;;;;;;;14.93;11.23;;;26.30;99.90;;;;;;5072210;28;20035;-72
2021/07/30 06:25:20;;;;;;;16.45;10.98;;;26.50;99.90;;;;;;5090537;28;20028;-73
2021/07/30 06:27:46;;;;;;;22.05;13.02;;;26.60;99.90;;;;;;5090048;28;20025;-73
2021/07/30 06:30:12;;;;;;;19.92;10.88;;;26.60;99.90;;;;;;5072435;28;20110;-73
2021/07/30 06:32:38;;;;;;;13.70;11.23;;;26.70;99.90;;;;;;5094337;28;20039;-73
2021/07/30 06:35:05;;;;;;;17.15;11.35;;;26.90;99.90;;;;;;5076770;28;20028;-73
2021/07/30 06:37:32;;;;;;;16.00;11.30;;;27.00;99.90;;;;;;5094258;28;20028;-73
2021/07/30 06:39:59;;;;;;;14.45;12.27;;;27.10;99.90;;;;;;5077343;28;20031;-74
2021/07/30 06:42:24;;;;;;;15.80;11.43;;;27.30;99.90;;;;;;5093838;28;20082;-73
2021/07/30 06:44:50;;;;;;;15.25;12.00;;;27.40;99.90;;;;;;5074204;28;20029;-73
2021/07/30 06:47:18;;;;;;;19.30;14.27;;;27.40;99.90;;;;;;5077550;28;20023;-74
2021/07/30 06:49:44;;;;;;;17.40;13.10;;;27.40;99.90;;;;;;5097174;28;20496;-75
2021/07/30 06:52:10;;;;;;;19.02;12.68;;;27.50;99.90;;;;;;5096036;28;20038;-74
2021/07/30 06:54:37;;;;;;;17.25;12.30;;;27.60;99.90;;;;;;5094962;28;20271;-73
2021/07/30 06:57:03;;;;;;;27.10;11.45;;;27.70;99.90;;;;;;5093790;28;20031;-74
2021/07/30 06:59:29;;;;;;;24.67;12.23;;;27.70;99.90;;;;;;5075306;28;20050;-73
2021/07/30 07:01:55;;;;;;;17.73;12.02;;;27.80;99.90;;;;;;5075912;28;20115;-72
2021/07/30 07:04:21;;;;;;;15.82;11.80;;;27.80;99.90;;;;;;5094456;28;20031;-73
2021/07/30 07:06:49;;;;;;;15.15;11.23;;;27.90;99.90;;;;;;5075739;28;20024;-73
2021/07/30 07:09:15;;;;;;;21.63;13.73;;;28.00;99.90;;;;;;5093305;28;20020;-74
2021/07/30 07:11:41;;;;;;;18.13;12.27;;;28.30;99.90;;;;;;5093320;28;20024;-73
2021/07/30 07:14:07;;;;;;;22.05;12.55;;;28.40;99.90;;;;;;5075215;28;20080;-72
2021/07/30 07:16:33;;;;;;;16.58;13.10;;;28.40;99.90;;;;;;5093388;28;20401;-72
2021/07/30 07:18:59;;;;;;;15.65;11.55;;;28.50;99.90;;;;;;5074687;28;20031;-72
2021/07/30 07:21:25;;;;;;;19.02;13.77;;;28.50;99.90;;;;;;5093272;28;20054;-73
2021/07/30 07:23:51;;;;;;;14.77;12.02;;;28.60;99.90;;;;;;5075126;28;20115;-73
2021/07/30 07:26:19;;;;;;;18.23;11.45;;;28.70;99.90;;;;;;5093311;28;20470;-73
2021/07/30 07:28:45;;;;;;;19.17;12.50;;;28.70;99.90;;;;;;5074897;28;20027;-73
2021/07/30 07:31:11;;;;;;;19.23;11.05;;;28.80;99.90;;;;;;5093132;28;20069;-72
2021/07/30 07:33:37;;;;;;;12.40;10.65;;;28.90;99.90;;;;;;5093136;28;20032;-73
2021/07/30 07:36:04;;;;;;;15.40;11.07;;;29.10;99.90;;;;;;5093072;28;20482;-72
2021/07/30 07:38:30;;;;;;;18.00;12.80;;;29.10;99.90;;;;;;5093056;28;20048;-73
2021/07/30 07:40:56;;;;;;;28.52;12.43;;;29.20;99.90;;;;;;5093168;28;20030;-72
2021/07/30 07:43:22;;;;;;;12.80;11.40;;;29.20;99.90;;;;;;5073987;28;20024;-73
2021/07/30 07:45:48;;;;;;;18.75;14.00;;;29.30;99.90;;;;;;5074849;28;20150;-73
2021/07/30 07:48:13;;;;;;;24.27;12.55;;;29.20;99.90;;;;;;5074670;28;20377;-74
2021/07/30 07:50:39;;;;;;;23.13;13.27;;;29.00;99.90;;;;;;5093128;28;20031;-73
2021/07/30 07:53:16;;;;;;;28.38;13.63;;;28.80;99.90;;;;;;5093544;28;20059;-73
2021/07/30 07:55:42;;;;;;;20.63;12.68;;;28.80;99.90;;;;;;5074622;28;20024;-74
2021/07/30 07:58:08;;;;;;;16.48;13.45;;;28.70;99.90;;;;;;5092444;28;20054;-74
2021/07/30 08:00:35;;;;;;;21.30;12.25;;;28.70;99.90;;;;;;5092767;28;20032;-74
2021/07/30 08:03:01;;;;;;;17.40;14.15;;;28.70;99.90;;;;;;5074515;28;20032;-73
2021/07/30 08:05:26;;;;;;;16.33;13.75;;;28.60;99.90;;;;;;5074672;28;20126;-72
2021/07/30 08:07:52;;;;;;;20.73;14.18;;;28.50;99.90;;;;;;5074365;28;20191;-75
2021/07/30 08:10:18;;;;;;;21.63;13.98;;;28.40;99.90;;;;;;5092380;28;20027;-74
2021/07/30 08:12:50;;;;;;;26.05;14.50;;;28.30;99.90;;;;;;5074300;28;20368;-74
2021/07/30 08:15:20;;;;;;;15.20;12.95;;;28.30;99.90;;;;;;5092767;28;20397;-75
2021/07/30 08:17:46;;;;;;;21.85;13.65;;;28.30;99.90;;;;;;5074101;28;20489;-72
2021/07/30 08:20:13;;;;;;;20.67;12.98;;;28.20;99.90;;;;;;5092678;28;20086;-74
2021/07/30 08:22:40;;;;;;;24.58;13.43;;;28.30;99.90;;;;;;5075240;28;20089;-74
2021/07/30 08:25:07;;;;;;;19.30;15.07;;;28.10;99.90;;;;;;5074133;28;20021;-73
2021/07/30 08:27:32;;;;;;;21.90;13.73;;;28.10;99.90;;;;;;5073576;28;20217;-74
2021/07/30 08:29:58;;;;;;;24.45;13.98;;;27.90;99.90;;;;;;5092191;28;20442;-74
2021/07/30 08:32:24;;;;;;;20.20;14.30;;;28.00;99.90;;;;;;5091936;28;20405;-74
2021/07/30 08:34:49;;;;;;;20.55;14.80;;;28.00;99.90;;;;;;5091799;28;20031;-73
2021/07/30 08:37:15;;;;;;;22.85;13.68;;;28.00;99.90;;;;;;5091963;28;20416;-72
2021/07/30 08:39:41;;;;;;;24.02;14.73;;;28.10;99.90;;;;;;5073147;28;20543;-73
2021/07/30 08:42:07;;;;;;;18.38;14.25;;;28.20;99.90;;;;;;5091705;28;20074;-74
2021/07/30 08:44:33;;;;;;;20.00;13.20;;;28.30;99.90;;;;;;5073312;28;20036;-72
2021/07/30 08:47:00;;;;;;;20.02;13.23;;;28.40;99.90;;;;;;5070793;28;20024;-73
2021/07/30 08:49:25;;;;;;;18.83;14.30;;;28.40;99.90;;;;;;5091221;28;20055;-73
2021/07/30 08:52:02;;;;;;;17.80;14.52;;;28.50;99.90;;;;;;5073171;28;20470;-73
2021/07/30 08:54:30;;;;;;;20.15;15.93;;;28.40;99.90;;;;;;5091389;28;20496;-75
2021/07/30 08:56:56;;;;;;;26.60;15.05;;;28.50;99.90;;;;;;5091847;28;20066;-72
2021/07/30 08:59:22;;;;;;;17.50;14.75;;;28.60;99.90;;;;;;5091393;28;20048;-73
2021/07/30 09:01:54;;;;;;;17.55;14.40;;;28.70;99.90;;;;;;5091329;28;20024;-73
2021/07/30 09:04:30;;;;;;;18.55;13.35;;;28.60;99.90;;;;;;5091444;28;20026;-73
2021/07/30 09:06:57;;;;;;;21.65;15.18;;;28.70;99.90;;;;;;5073611;28;20355;-74
2021/07/30 09:09:24;;;;;;;27.20;14.70;;;28.70;99.90;;;;;;5091897;28;20024;-73
2021/07/30 09:11:58;;;;;;;17.63;13.90;;;28.80;99.90;;;;;;5092070;28;20027;-75
2021/07/30 09:14:37;;;;;;;20.10;13.30;;;28.90;99.90;;;;;;5073738;28;20066;-76
2021/07/30 09:17:04;;;;;;;19.77;14.68;;;28.90;99.90;;;;;;5073314;28;20059;-76
2021/07/30 09:19:29;;;;;;;17.85;13.38;;;28.90;99.90;;;;;;5091350;28;20028;-75
2021/07/30 09:22:21;;;;;;;18.15;14.55;;;29.00;99.90;;;;;;5072562;28;20024;-74
2021/07/30 09:24:57;;;;;;;25.20;12.57;;;29.00;99.90;;;;;;5068276;28;20028;-74
2021/07/30 09:27:24;;;;;;;23.98;13.18;;;29.10;99.90;;;;;;5092146;28;20058;-74
2021/07/30 09:29:49;;;;;;;17.98;12.70;;;29.10;99.90;;;;;;5092648;28;20027;-75
2021/07/30 09:32:17;;;;;;;23.52;14.75;;;29.20;99.90;;;;;;5073952;28;20060;-76
2021/07/30 09:34:51;;;;;;;22.75;12.80;;;29.30;99.90;;;;;;5075022;28;20032;-75
2021/07/30 09:37:24;;;;;;;16.60;12.52;;;29.30;99.90;;;;;;5075712;28;20028;-75
2021/07/30 09:39:53;;;;;;;19.55;14.23;;;29.10;99.90;;;;;;5094516;28;20027;-74
2021/07/30 09:42:20;;;;;;;22.80;13.25;;;29.10;99.90;;;;;;5075927;28;20032;-74
2021/07/30 09:44:56;;;;;;;16.65;12.18;;;29.30;99.90;;;;;;5093483;28;20028;-74
2021/07/30 09:47:22;;;;;;;16.23;13.10;;;29.30;99.90;;;;;;5072869;28;20024;-74
2021/07/30 09:50:00;;;;;;;21.70;12.65;;;29.40;99.90;;;;;;5090760;28;20488;-74
2021/07/30 09:52:34;;;;;;;19.15;13.88;;;29.50;99.90;;;;;;5091165;28;20028;-75
2021/07/30 09:55:05;;;;;;;16.23;11.65;;;29.60;99.90;;;;;;5073091;28;20307;-75
2021/07/30 09:57:34;;;;;;;27.30;14.27;;;29.70;99.90;;;;;;5090975;28;20061;-76
2021/07/30 10:00:05;;;;;;;26.52;12.00;;;29.70;99.90;;;;;;5072629;28;20066;-74
2021/07/30 10:02:33;;;;;;;17.20;12.27;;;29.80;99.90;;;;;;5090959;28;20414;-73
2021/07/30 10:05:00;;;;;;;13.60;11.45;;;29.80;99.90;;;;;;5072492;28;20028;-74
2021/07/30 10:07:28;;;;;;;14.23;11.75;;;29.80;99.90;;;;;;5095368;28;20092;-75
2021/07/30 10:12:25;;;;;;;19.02;11.73;;;29.80;99.90;;;;;;5097096;28;20524;-77
2021/07/30 10:14:51;;;;;;;23.13;11.95;;;29.80;99.90;;;;;;5096974;28;20032;-75
2021/07/30 10:17:27;;;;;;;15.95;11.20;;;29.90;99.90;;;;;;5077104;28;20023;-74
2021/07/30 10:19:54;;;;;;;13.88;11.82;;;30.00;99.90;;;;;;5076660;28;20040;-76
2021/07/30 10:22:22;;;;;;;17.27;10.27;;;30.10;99.90;;;;;;5095189;28;20046;-76
2021/07/30 10:24:52;;;;;;;15.02;10.60;;;30.20;99.90;;;;;;5095332;28;20051;-76
2021/07/30 10:27:22;;;;;;;14.30;11.48;;;30.10;99.90;;;;;;5097374;28;20027;-75
2021/07/30 10:30:14;;;;;;;10.65;9.57;;;30.20;99.90;;;;;;5078985;28;20490;-74
2021/07/30 10:32:51;;;;;;;21.40;11.93;;;30.30;99.90;;;;;;5096234;28;20032;-74
2021/07/30 10:35:36;;;;;;;16.25;10.77;;;30.40;99.90;;;;;;5094453;28;20497;-66
2021/07/30 10:38:19;;;;;;;17.30;10.55;;;30.30;99.90;;;;;;5093326;28;20521;-65
2021/07/30 10:41:06;;;;;;;17.65;10.30;;;30.20;99.90;;;;;;5058664;28;20028;-64
2021/07/30 10:43:52;;;;;;;14.18;11.05;;;30.20;99.90;;;;;;5093880;28;20028;-65
2021/07/30 10:46:19;;;;;;;17.98;10.88;;;30.20;99.90;;;;;;5073716;28;20024;-67
2021/07/30 10:48:46;;;;;;;14.15;10.52;;;30.00;99.90;;;;;;5075886;28;20096;-64
2021/07/30 10:51:24;;;;;;;13.63;10.82;;;30.00;99.90;;;;;;5093470;28;20398;-64
2021/07/30 10:54:05;;;;;;;14.93;10.35;;;30.00;99.90;;;;;;5077344;28;20504;-65
2021/07/30 10:56:31;;;;;;;13.88;10.43;;;30.00;99.90;;;;;;5077866;28;20050;-66
2021/07/30 10:59:00;;;;;;;13.00;11.00;;;30.00;99.90;;;;;;5094291;28;20485;-65
2021/07/30 11:01:29;;;;;;;14.15;10.18;;;30.30;99.90;;;;;;5094142;28;20048;-65
2021/07/30 11:04:04;;;;;;;14.68;11.00;;;30.30;99.90;;;;;;5093904;28;20047;-65
2021/07/30 11:06:38;;;;;;;14.55;10.23;;;30.30;99.90;;;;;;5093778;28;20443;-65
2021/07/30 11:09:07;;;;;;;14.38;10.48;;;30.50;99.90;;;;;;5074818;28;20031;-66
2021/07/30 11:11:44;;;;;;;13.70;10.25;;;30.40;99.90;;;;;;5075341;28;20024;-66
2021/07/30 11:14:13;;;;;;;12.88;11.15;;;30.00;99.90;;;;;;5094194;28;20078;-66
2021/07/30 11:16:40;;;;;;;13.07;10.25;;;29.80;99.90;;;;;;5093388;28;20104;-66
2021/07/30 11:19:07;;;;;;;17.77;11.88;;;29.80;99.90;;;;;;5073875;28;20492;-67
2021/07/30 11:21:33;;;;;;;14.85;10.63;;;29.90;99.90;;;;;;5074431;28;20028;-65
2021/07/30 11:24:00;;;;;;;16.70;11.27;;;30.00;99.90;;;;;;5092928;28;20484;-66
2021/07/30 11:26:29;;;;;;;18.00;13.10;;;30.00;99.90;;;;;;5074860;28;20048;-65
2021/07/30 11:29:08;;;;;;;14.13;11.70;;;30.00;99.90;;;;;;5074682;28;20043;-66
2021/07/30 11:31:56;;;;;;;16.60;11.48;;;30.10;99.90;;;;;;5092511;28;20044;-66
2021/07/30 11:34:29;;;;;;;16.95;13.20;;;30.10;99.90;;;;;;5073966;28;20028;-66
2021/07/30 11:37:09;;;;;;;17.42;11.77;;;30.20;99.90;;;;;;5073455;28;20024;-66
2021/07/30 11:39:38;;;;;;;20.45;13.00;;;30.30;99.90;;;;;;5092872;28;20462;-66
2021/07/30 11:42:05;;;;;;;16.02;11.98;;;30.60;99.90;;;;;;5092723;28;20016;-68
2021/07/30 11:44:58;;;;;;;14.23;12.65;;;30.70;99.90;;;;;;5074139;28;20474;-67
2021/07/30 11:47:29;;;;;;;17.60;11.85;;;30.60;99.90;;;;;;5090686;28;20041;-66
2021/07/30 11:50:06;;;;;;;13.05;11.23;;;30.50;99.90;;;;;;5062070;28;20119;-66
2021/07/30 11:52:42;;;;;;;14.20;12.25;;;30.60;99.90;;;;;;5093100;28;20134;-66
2021/07/30 11:55:19;;;;;;;19.17;10.82;;;30.80;99.90;;;;;;5106374;28;20028;-66
2021/07/30 11:57:46;;;;;;;16.13;11.45;;;31.00;99.90;;;;;;5110226;28;20438;-67
2021/07/30 12:00:37;;;;;;;20.20;13.57;;;30.90;99.90;;;;;;5104648;28;20039;-66
2021/07/30 12:03:22;;;;;;;20.85;12.02;;;30.80;99.90;;;;;;5099105;28;20027;-66
2021/07/30 12:05:50;;;;;;;15.27;11.52;;;30.70;99.90;;;;;;5089891;28;20451;-67
2021/07/30 12:08:17;;;;;;;14.43;11.52;;;30.70;99.90;;;;;;5093852;28;20035;-66
2021/07/30 12:10:45;;;;;;;13.80;11.88;;;30.60;99.90;;;;;;5073378;28;20024;-68
2021/07/30 12:13:11;;;;;;;18.50;11.98;;;30.50;99.90;;;;;;5073920;28;20073;-66
2021/07/30 12:15:39;;;;;;;16.80;11.13;;;30.70;99.90;;;;;;5092274;28;20488;-67
2021/07/30 12:18:05;;;;;;;20.52;12.60;;;30.70;99.90;;;;;;5073898;28;20115;-66
2021/07/30 12:20:33;;;;;;;17.25;11.43;;;30.60;99.90;;;;;;5092273;28;20459;-66
2021/07/30 12:23:15;;;;;;;18.90;13.02;;;30.70;99.90;;;;;;5073890;28;20032;-66
2021/07/30 12:25:48;;;;;;;16.58;12.48;;;30.70;99.90;;;;;;5074322;28;20020;-66
2021/07/30 12:28:16;;;;;;;20.13;12.68;;;30.70;99.90;;;;;;5092171;28;20055;-67
2021/07/30 12:30:46;;;;;;;20.38;12.70;;;30.60;99.90;;;;;;5092145;28;20262;-67
2021/07/30 12:33:32;;;;;;;17.58;13.63;;;30.70;99.90;;;;;;5073781;28;20111;-67
2021/07/30 12:36:12;;;;;;;17.02;11.90;;;30.70;99.90;;;;;;5073746;28;20453;-67